sensor_id;sensor_type;location;lat;lon;timestamp;temperature;humidity
30764;DHT22;17497;51.476;7.770;2022-09-19T00:01:53;9.00;99.90
30764;DHT22;17497;51.476;7.770;2022-09-19T00:04:24;8.90;99.90
30764;DHT22;17497;51.476;7.770;2022-09-19T00:06:52;8.90;99.90
30764;DHT22;17497;51.476;7.770;2022-09-19T00:09:22;9.00;99.90
30764;DHT22;17497;51.476;7.770;2022-09-19T00:11:50;8.90;99.90
30764;DHT22;17497;51.476;7.770;2022-09-19T00:14:21;8.90;99.90
30764;DHT22;17497;51.476;7.770;2022-09-19T00:16:48;8.90;99.90
30764;DHT22;17497;51.476;7.770;2022-09-19T00:19:17;8.90;99.90
30764;DHT22;17497;51.476;7.770;2022-09-19T00:21:46;8.90;99.90
30764;DHT22;17497;51.476;7.770;2022-09-19T00:24:18;8.90;99.90
30764;DHT22;17497;51.476;7.770;2022-09-19T00:27:07;8.90;99.90
30764;DHT22;17497;51.476;7.770;2022-09-19T00:29:38;9.00;99.90
30764;DHT22;17497;51.476;7.770;2022-09-19T00:32:05;9.00;99.90
30764;DHT22;17497;51.476;7.770;2022-09-19T00:34:43;9.00;99.90
30764;DHT22;17497;51.476;7.770;2022-09-19T00:37:11;9.00;99.90
30764;DHT22;17497;51.476;7.770;2022-09-19T00:39:38;8.90;99.90
30764;DHT22;17497;51.476;7.770;2022-09-19T00:42:05;8.90;99.90
30764;DHT22;17497;51.476;7.770;2022-09-19T00:47:10;8.90;99.90
30764;DHT22;17497;51.476;7.770;2022-09-19T00:49:40;8.90;99.90
30764;DHT22;17497;51.476;7.770;2022-09-19T00:52:12;8.90;99.90
30764;DHT22;17497;51.476;7.770;2022-09-19T00:54:43;8.90;99.90
30764;DHT22;17497;51.476;7.770;2022-09-19T00:57:12;8.90;99.90
30764;DHT22;17497;51.476;7.770;2022-09-19T00:59:44;8.90;99.90
30764;DHT22;17497;51.476;7.770;2022-09-19T01:02:12;8.90;99.90
30764;DHT22;17497;51.476;7.770;2022-09-19T01:04:41;8.90;99.90
30764;DHT22;17497;51.476;7.770;2022-09-19T01:07:32;8.90;99.90
30764;DHT22;17497;51.476;7.770;2022-09-19T01:10:08;8.80;99.90
30764;DHT22;17497;51.476;7.770;2022-09-19T01:18:02;8.70;99.90
30764;DHT22;17497;51.476;7.770;2022-09-19T01:29:26;8.80;99.90
30764;DHT22;17497;51.476;7.770;2022-09-19T01:31:57;8.70;99.90
30764;DHT22;17497;51.476;7.770;2022-09-19T01:34:40;8.70;99.90
30764;DHT22;17497;51.476;7.770;2022-09-19T01:37:15;8.70;99.90
30764;DHT22;17497;51.476;7.770;2022-09-19T01:39:45;8.70;99.90
30764;DHT22;17497;51.476;7.770;2022-09-19T01:42:17;8.70;99.90
30764;DHT22;17497;51.476;7.770;2022-09-19T01:44:44;8.70;99.90
30764;DHT22;17497;51.476;7.770;2022-09-19T01:47:33;8.70;99.90
30764;DHT22;17497;51.476;7.770;2022-09-19T01:50:19;8.70;99.90
30764;DHT22;17497;51.476;7.770;2022-09-19T02:01:05;8.80;99.90
30764;DHT22;17497;51.476;7.770;2022-09-19T02:03:58;8.80;99.90
30764;DHT22;17497;51.476;7.770;2022-09-19T02:09:49;8.70;99.90
30764;DHT22;17497;51.476;7.770;2022-09-19T02:11:59;8.70;99.90
30764;DHT22;17497;51.476;7.770;2022-09-19T02:14:31;8.70;99.90
30764;DHT22;17497;51.476;7.770;2022-09-19T02:17:04;8.70;99.90
30764;DHT22;17497;51.476;7.770;2022-09-19T02:19:45;8.70;99.90
30764;DHT22;17497;51.476;7.770;2022-09-19T02:24:49;8.80;99.90
30764;DHT22;17497;51.476;7.770;2022-09-19T02:27:25;8.80;99.90
30764;DHT22;17497;51.476;7.770;2022-09-19T02:29:59;8.80;99.90
30764;DHT22;17497;51.476;7.770;2022-09-19T02:32:26;8.90;99.90
30764;DHT22;17497;51.476;7.770;2022-09-19T02:34:55;8.80;99.90
30764;DHT22;17497;51.476;7.770;2022-09-19T02:37:43;8.80;99.90
30764;DHT22;17497;51.476;7.770;2022-09-19T02:41:19;8.80;99.90
30764;DHT22;17497;51.476;7.770;2022-09-19T02:45:55;8.90;99.90
30764;DHT22;17497;51.476;7.770;2022-09-19T02:51:20;8.90;99.90
30764;DHT22;17497;51.476;7.770;2022-09-19T02:53:54;8.90;99.90
30764;DHT22;17497;51.476;7.770;2022-09-19T02:56:25;8.90;99.90
30764;DHT22;17497;51.476;7.770;2022-09-19T02:59:18;8.90;99.90
30764;DHT22;17497;51.476;7.770;2022-09-19T03:01:58;8.90;99.90
30764;DHT22;17497;51.476;7.770;2022-09-19T03:04:32;8.90;99.90
30764;DHT22;17497;51.476;7.770;2022-09-19T03:07:05;8.80;99.90
30764;DHT22;17497;51.476;7.770;2022-09-19T03:09:41;8.80;99.90
30764;DHT22;17497;51.476;7.770;2022-09-19T03:14:46;8.80;99.90
30764;DHT22;17497;51.476;7.770;2022-09-19T03:17:14;8.80;99.90
30764;DHT22;17497;51.476;7.770;2022-09-19T03:19:47;8.80;99.90
30764;DHT22;17497;51.476;7.770;2022-09-19T03:22:14;8.80;99.90
30764;DHT22;17497;51.476;7.770;2022-09-19T03:24:42;8.80;99.90
30764;DHT22;17497;51.476;7.770;2022-09-19T03:27:09;8.80;99.90
30764;DHT22;17497;51.476;7.770;2022-09-19T03:29:36;8.80;99.90
30764;DHT22;17497;51.476;7.770;2022-09-19T03:32:03;8.80;99.90
30764;DHT22;17497;51.476;7.770;2022-09-19T03:34:30;8.70;99.90
30764;DHT22;17497;51.476;7.770;2022-09-19T03:36:59;8.80;99.90
30764;DHT22;17497;51.476;7.770;2022-09-19T03:39:26;8.80;99.90
30764;DHT22;17497;51.476;7.770;2022-09-19T03:41:53;8.80;99.90
30764;DHT22;17497;51.476;7.770;2022-09-19T03:44:20;8.80;99.90
30764;DHT22;17497;51.476;7.770;2022-09-19T03:46:48;8.80;99.90
30764;DHT22;17497;51.476;7.770;2022-09-19T03:49:15;8.80;99.90
30764;DHT22;17497;51.476;7.770;2022-09-19T03:51:42;8.80;99.90
30764;DHT22;17497;51.476;7.770;2022-09-19T03:54:13;8.80;99.90
30764;DHT22;17497;51.476;7.770;2022-09-19T03:56:40;8.70;99.90
30764;DHT22;17497;51.476;7.770;2022-09-19T03:59:06;8.70;99.90
30764;DHT22;17497;51.476;7.770;2022-09-19T04:01:33;8.70;99.90
30764;DHT22;17497;51.476;7.770;2022-09-19T04:04:00;8.70;99.90
30764;DHT22;17497;51.476;7.770;2022-09-19T04:06:28;8.70;99.90
30764;DHT22;17497;51.476;7.770;2022-09-19T04:08:55;8.70;99.90
30764;DHT22;17497;51.476;7.770;2022-09-19T04:11:21;8.70;99.90
30764;DHT22;17497;51.476;7.770;2022-09-19T04:13:48;8.80;99.90
30764;DHT22;17497;51.476;7.770;2022-09-19T04:16:17;8.80;99.90
30764;DHT22;17497;51.476;7.770;2022-09-19T04:18:44;8.80;99.90
30764;DHT22;17497;51.476;7.770;2022-09-19T04:21:14;8.80;99.90
30764;DHT22;17497;51.476;7.770;2022-09-19T04:23:44;8.80;99.90
30764;DHT22;17497;51.476;7.770;2022-09-19T04:26:11;8.90;99.90
30764;DHT22;17497;51.476;7.770;2022-09-19T04:28:39;8.90;99.90
30764;DHT22;17497;51.476;7.770;2022-09-19T04:31:07;9.00;99.90
30764;DHT22;17497;51.476;7.770;2022-09-19T04:33:36;8.90;99.90
30764;DHT22;17497;51.476;7.770;2022-09-19T04:36:04;8.90;99.90
30764;DHT22;17497;51.476;7.770;2022-09-19T04:38:33;8.90;99.90
30764;DHT22;17497;51.476;7.770;2022-09-19T04:41:01;9.00;99.90
30764;DHT22;17497;51.476;7.770;2022-09-19T04:43:29;9.00;99.90
30764;DHT22;17497;51.476;7.770;2022-09-19T04:45:56;9.00;99.90
30764;DHT22;17497;51.476;7.770;2022-09-19T04:48:24;9.00;99.90
30764;DHT22;17497;51.476;7.770;2022-09-19T04:50:52;9.00;99.90
30764;DHT22;17497;51.476;7.770;2022-09-19T04:53:21;9.00;99.90
30764;DHT22;17497;51.476;7.770;2022-09-19T04:55:51;9.00;99.90
30764;DHT22;17497;51.476;7.770;2022-09-19T04:58:19;9.00;99.90
30764;DHT22;17497;51.476;7.770;2022-09-19T05:00:51;9.10;99.90
30764;DHT22;17497;51.476;7.770;2022-09-19T05:03:19;9.10;99.90
30764;DHT22;17497;51.476;7.770;2022-09-19T05:05:48;9.10;99.90
30764;DHT22;17497;51.476;7.770;2022-09-19T05:08:20;9.10;99.90
30764;DHT22;17497;51.476;7.770;2022-09-19T05:10:56;9.10;99.90
30764;DHT22;17497;51.476;7.770;2022-09-19T05:13:28;9.10;99.90
30764;DHT22;17497;51.476;7.770;2022-09-19T05:15:56;9.10;99.90
30764;DHT22;17497;51.476;7.770;2022-09-19T05:18:24;9.10;99.90
30764;DHT22;17497;51.476;7.770;2022-09-19T05:20:52;9.20;99.90
30764;DHT22;17497;51.476;7.770;2022-09-19T05:23:24;9.20;99.90
30764;DHT22;17497;51.476;7.770;2022-09-19T05:25:51;9.20;99.90
30764;DHT22;17497;51.476;7.770;2022-09-19T05:28:21;9.20;99.90
30764;DHT22;17497;51.476;7.770;2022-09-19T05:30:53;9.20;99.90
30764;DHT22;17497;51.476;7.770;2022-09-19T05:33:23;9.20;99.90
30764;DHT22;17497;51.476;7.770;2022-09-19T05:35:54;9.20;99.90
30764;DHT22;17497;51.476;7.770;2022-09-19T05:38:26;9.20;99.90
30764;DHT22;17497;51.476;7.770;2022-09-19T05:40:53;9.30;99.90
30764;DHT22;17497;51.476;7.770;2022-09-19T05:43:21;9.30;99.90
30764;DHT22;17497;51.476;7.770;2022-09-19T05:45:49;9.30;99.90
30764;DHT22;17497;51.476;7.770;2022-09-19T05:48:17;9.30;99.90
30764;DHT22;17497;51.476;7.770;2022-09-19T05:50:44;9.30;99.90
30764;DHT22;17497;51.476;7.770;2022-09-19T05:53:11;9.30;99.90
30764;DHT22;17497;51.476;7.770;2022-09-19T05:55:57;9.30;99.90
30764;DHT22;17497;51.476;7.770;2022-09-19T05:58:25;9.40;99.90
30764;DHT22;17497;51.476;7.770;2022-09-19T06:00:52;9.30;99.90
30764;DHT22;17497;51.476;7.770;2022-09-19T06:03:19;9.40;99.90
30764;DHT22;17497;51.476;7.770;2022-09-19T06:05:50;9.40;99.90
30764;DHT22;17497;51.476;7.770;2022-09-19T06:08:21;9.40;99.90
30764;DHT22;17497;51.476;7.770;2022-09-19T06:10:49;9.40;99.90
30764;DHT22;17497;51.476;7.770;2022-09-19T06:13:23;9.40;99.90
30764;DHT22;17497;51.476;7.770;2022-09-19T06:15:50;9.50;99.90
30764;DHT22;17497;51.476;7.770;2022-09-19T06:18:16;9.50;99.90
30764;DHT22;17497;51.476;7.770;2022-09-19T06:20:44;9.50;99.90
30764;DHT22;17497;51.476;7.770;2022-09-19T06:23:29;9.70;99.90
30764;DHT22;17497;51.476;7.770;2022-09-19T06:26:00;9.70;99.90
30764;DHT22;17497;51.476;7.770;2022-09-19T06:28:27;9.70;99.90
30764;DHT22;17497;51.476;7.770;2022-09-19T06:30:54;9.70;99.90
30764;DHT22;17497;51.476;7.770;2022-09-19T06:33:21;9.80;99.90
30764;DHT22;17497;51.476;7.770;2022-09-19T06:35:48;9.80;99.90
30764;DHT22;17497;51.476;7.770;2022-09-19T06:38:14;9.90;99.90
30764;DHT22;17497;51.476;7.770;2022-09-19T06:40:41;9.90;99.90
30764;DHT22;17497;51.476;7.770;2022-09-19T06:43:10;9.90;99.90
30764;DHT22;17497;51.476;7.770;2022-09-19T06:45:36;9.90;99.90
30764;DHT22;17497;51.476;7.770;2022-09-19T06:48:09;10.00;99.90
30764;DHT22;17497;51.476;7.770;2022-09-19T06:53:17;10.00;99.90
30764;DHT22;17497;51.476;7.770;2022-09-19T06:55:43;10.00;99.90
30764;DHT22;17497;51.476;7.770;2022-09-19T06:58:13;10.00;99.90
30764;DHT22;17497;51.476;7.770;2022-09-19T07:00:41;10.00;99.90
30764;DHT22;17497;51.476;7.770;2022-09-19T07:03:14;10.10;99.90
30764;DHT22;17497;51.476;7.770;2022-09-19T07:05:42;10.10;99.90
30764;DHT22;17497;51.476;7.770;2022-09-19T07:08:11;10.10;99.90
30764;DHT22;17497;51.476;7.770;2022-09-19T07:10:39;10.20;99.90
30764;DHT22;17497;51.476;7.770;2022-09-19T07:13:08;10.20;99.90
30764;DHT22;17497;51.476;7.770;2022-09-19T07:15:36;10.10;99.90
30764;DHT22;17497;51.476;7.770;2022-09-19T07:18:04;10.20;99.90
30764;DHT22;17497;51.476;7.770;2022-09-19T07:20:40;10.20;99.90
30764;DHT22;17497;51.476;7.770;2022-09-19T07:23:15;10.20;99.90
30764;DHT22;17497;51.476;7.770;2022-09-19T07:25:43;10.20;99.90
30764;DHT22;17497;51.476;7.770;2022-09-19T07:28:11;10.30;99.90
30764;DHT22;17497;51.476;7.770;2022-09-19T07:30:38;10.20;99.90
30764;DHT22;17497;51.476;7.770;2022-09-19T07:33:07;10.30;99.90
30764;DHT22;17497;51.476;7.770;2022-09-19T07:35:35;10.40;99.90
30764;DHT22;17497;51.476;7.770;2022-09-19T07:38:03;10.50;99.90
30764;DHT22;17497;51.476;7.770;2022-09-19T07:40:32;10.50;99.90
30764;DHT22;17497;51.476;7.770;2022-09-19T07:43:01;10.50;99.90
30764;DHT22;17497;51.476;7.770;2022-09-19T07:45:34;10.60;99.90
30764;DHT22;17497;51.476;7.770;2022-09-19T07:48:02;10.60;99.90
30764;DHT22;17497;51.476;7.770;2022-09-19T07:50:29;10.70;99.90
30764;DHT22;17497;51.476;7.770;2022-09-19T07:53:06;10.70;99.90
30764;DHT22;17497;51.476;7.770;2022-09-19T07:55:34;10.70;99.90
30764;DHT22;17497;51.476;7.770;2022-09-19T07:58:05;10.70;99.90
30764;DHT22;17497;51.476;7.770;2022-09-19T08:00:33;10.70;99.90
30764;DHT22;17497;51.476;7.770;2022-09-19T08:03:07;10.80;99.90
30764;DHT22;17497;51.476;7.770;2022-09-19T08:05:39;10.90;99.90
30764;DHT22;17497;51.476;7.770;2022-09-19T08:08:09;10.90;99.90
30764;DHT22;17497;51.476;7.770;2022-09-19T08:10:38;10.90;99.90
30764;DHT22;17497;51.476;7.770;2022-09-19T08:13:14;10.90;99.90
30764;DHT22;17497;51.476;7.770;2022-09-19T08:15:43;11.00;99.90
30764;DHT22;17497;51.476;7.770;2022-09-19T08:18:18;11.20;99.90
30764;DHT22;17497;51.476;7.770;2022-09-19T08:20:46;11.30;99.90
30764;DHT22;17497;51.476;7.770;2022-09-19T08:23:15;11.40;99.90
30764;DHT22;17497;51.476;7.770;2022-09-19T08:25:44;11.50;99.90
30764;DHT22;17497;51.476;7.770;2022-09-19T08:28:14;11.50;99.90
30764;DHT22;17497;51.476;7.770;2022-09-19T08:30:41;11.50;99.90
30764;DHT22;17497;51.476;7.770;2022-09-19T08:33:12;11.60;99.90
30764;DHT22;17497;51.476;7.770;2022-09-19T08:35:39;11.70;99.90
30764;DHT22;17497;51.476;7.770;2022-09-19T08:38:09;11.60;99.90
30764;DHT22;17497;51.476;7.770;2022-09-19T08:54:22;12.00;99.90
30764;DHT22;17497;51.476;7.770;2022-09-19T08:56:50;12.10;99.90
30764;DHT22;17497;51.476;7.770;2022-09-19T08:59:20;12.00;99.90
30764;DHT22;17497;51.476;7.770;2022-09-19T09:01:48;12.00;99.90
30764;DHT22;17497;51.476;7.770;2022-09-19T09:04:35;12.10;99.90
30764;DHT22;17497;51.476;7.770;2022-09-19T09:10:04;12.20;99.90
30764;DHT22;17497;51.476;7.770;2022-09-19T09:23:40;12.60;99.90
30764;DHT22;17497;51.476;7.770;2022-09-19T09:26:13;12.80;99.90
30764;DHT22;17497;51.476;7.770;2022-09-19T09:28:47;12.90;99.90
30764;DHT22;17497;51.476;7.770;2022-09-19T09:31:35;13.00;99.90
30764;DHT22;17497;51.476;7.770;2022-09-19T09:34:10;13.20;99.90
30764;DHT22;17497;51.476;7.770;2022-09-19T09:37:26;13.20;99.90
30764;DHT22;17497;51.476;7.770;2022-09-19T09:39:56;13.30;99.90
30764;DHT22;17497;51.476;7.770;2022-09-19T09:42:46;13.30;99.90
30764;DHT22;17497;51.476;7.770;2022-09-19T09:45:46;13.30;99.90
30764;DHT22;17497;51.476;7.770;2022-09-19T09:48:34;13.30;99.90
30764;DHT22;17497;51.476;7.770;2022-09-19T09:51:35;13.40;99.90
30764;DHT22;17497;51.476;7.770;2022-09-19T09:54:42;13.50;99.90
30764;DHT22;17497;51.476;7.770;2022-09-19T10:00:14;13.60;99.90
30764;DHT22;17497;51.476;7.770;2022-09-19T10:03:22;13.60;99.90
30764;DHT22;17497;51.476;7.770;2022-09-19T10:06:33;13.70;99.90
30764;DHT22;17497;51.476;7.770;2022-09-19T10:09:08;13.90;99.90
30764;DHT22;17497;51.476;7.770;2022-09-19T10:14:38;14.30;99.90
30764;DHT22;17497;51.476;7.770;2022-09-19T10:17:05;14.50;99.90
30764;DHT22;17497;51.476;7.770;2022-09-19T10:19:35;14.70;99.90
30764;DHT22;17497;51.476;7.770;2022-09-19T10:22:05;14.90;99.90
30764;DHT22;17497;51.476;7.770;2022-09-19T10:24:52;15.20;99.90
30764;DHT22;17497;51.476;7.770;2022-09-19T10:27:24;14.90;99.90
30764;DHT22;17497;51.476;7.770;2022-09-19T10:29:52;14.70;99.90
30764;DHT22;17497;51.476;7.770;2022-09-19T10:32:25;14.70;99.90
30764;DHT22;17497;51.476;7.770;2022-09-19T10:34:52;14.60;99.90
30764;DHT22;17497;51.476;7.770;2022-09-19T10:37:22;14.50;99.90
30764;DHT22;17497;51.476;7.770;2022-09-19T10:39:59;14.60;99.90
30764;DHT22;17497;51.476;7.770;2022-09-19T10:42:35;14.80;99.90
30764;DHT22;17497;51.476;7.770;2022-09-19T10:45:27;15.30;99.90
30764;DHT22;17497;51.476;7.770;2022-09-19T10:47:58;15.50;99.90
30764;DHT22;17497;51.476;7.770;2022-09-19T10:50:27;15.50;99.90
30764;DHT22;17497;51.476;7.770;2022-09-19T10:53:03;15.70;99.90
30764;DHT22;17497;51.476;7.770;2022-09-19T10:55:34;15.60;99.90
30764;DHT22;17497;51.476;7.770;2022-09-19T10:58:05;15.60;99.90
30764;DHT22;17497;51.476;7.770;2022-09-19T11:00:51;15.20;99.90
30764;DHT22;17497;51.476;7.770;2022-09-19T11:03:20;15.00;99.90
30764;DHT22;17497;51.476;7.770;2022-09-19T11:06:10;14.50;99.90
30764;DHT22;17497;51.476;7.770;2022-09-19T11:08:46;14.20;99.90
30764;DHT22;17497;51.476;7.770;2022-09-19T11:11:26;14.30;99.90
30764;DHT22;17497;51.476;7.770;2022-09-19T11:14:39;15.10;99.90
30764;DHT22;17497;51.476;7.770;2022-09-19T11:25:37;17.10;99.90
30764;DHT22;17497;51.476;7.770;2022-09-19T11:28:38;17.20;99.90
30764;DHT22;17497;51.476;7.770;2022-09-19T11:42:49;16.00;99.90
30764;DHT22;17497;51.476;7.770;2022-09-19T11:45:22;16.00;99.90
30764;DHT22;17497;51.476;7.770;2022-09-19T11:53:49;17.40;99.90
30764;DHT22;17497;51.476;7.770;2022-09-19T12:10:45;18.40;99.90
30764;DHT22;17497;51.476;7.770;2022-09-19T12:16:20;17.40;99.90
30764;DHT22;17497;51.476;7.770;2022-09-19T12:18:58;15.80;99.90
30764;DHT22;17497;51.476;7.770;2022-09-19T12:21:43;14.50;99.90
30764;DHT22;17497;51.476;7.770;2022-09-19T12:24:31;13.90;99.90
30764;DHT22;17497;51.476;7.770;2022-09-19T12:27:22;13.50;99.90
30764;DHT22;17497;51.476;7.770;2022-09-19T12:41:17;13.00;99.90
30764;DHT22;17497;51.476;7.770;2022-09-19T12:46:58;12.80;99.90
30764;DHT22;17497;51.476;7.770;2022-09-19T12:52:34;12.80;99.90
30764;DHT22;17497;51.476;7.770;2022-09-19T12:55:20;13.00;99.90
30764;DHT22;17497;51.476;7.770;2022-09-19T12:58:12;13.40;99.90
30764;DHT22;17497;51.476;7.770;2022-09-19T13:00:48;13.80;99.90
30764;DHT22;17497;51.476;7.770;2022-09-19T13:03:42;13.90;99.90
30764;DHT22;17497;51.476;7.770;2022-09-19T13:06:18;13.80;99.90
30764;DHT22;17497;51.476;7.770;2022-09-19T13:09:05;13.70;99.90
30764;DHT22;17497;51.476;7.770;2022-09-19T13:11:43;13.60;99.90
30764;DHT22;17497;51.476;7.770;2022-09-19T13:14:16;13.50;99.90
30764;DHT22;17497;51.476;7.770;2022-09-19T13:16:44;13.50;99.90
30764;DHT22;17497;51.476;7.770;2022-09-19T13:19:38;13.50;99.90
30764;DHT22;17497;51.476;7.770;2022-09-19T13:22:26;13.60;99.90
30764;DHT22;17497;51.476;7.770;2022-09-19T13:25:17;13.50;99.90
30764;DHT22;17497;51.476;7.770;2022-09-19T13:27:45;13.40;99.90
30764;DHT22;17497;51.476;7.770;2022-09-19T13:30:46;13.30;99.90
30764;DHT22;17497;51.476;7.770;2022-09-19T13:33:22;13.30;99.90
30764;DHT22;17497;51.476;7.770;2022-09-19T13:35:52;13.20;99.90
30764;DHT22;17497;51.476;7.770;2022-09-19T13:38:35;13.20;99.90
30764;DHT22;17497;51.476;7.770;2022-09-19T13:41:14;13.30;99.90
30764;DHT22;17497;51.476;7.770;2022-09-19T13:46:36;13.60;99.90
30764;DHT22;17497;51.476;7.770;2022-09-19T13:49:20;13.60;99.90
30764;DHT22;17497;51.476;7.770;2022-09-19T13:52:09;13.70;99.90
30764;DHT22;17497;51.476;7.770;2022-09-19T13:59:54;12.70;99.90
30764;DHT22;17497;51.476;7.770;2022-09-19T14:02:35;12.40;99.90
30764;DHT22;17497;51.476;7.770;2022-09-19T14:18:46;12.60;99.90
30764;DHT22;17497;51.476;7.770;2022-09-19T14:23:58;12.30;99.90
30764;DHT22;17497;51.476;7.770;2022-09-19T14:29:38;11.60;99.90
30764;DHT22;17497;51.476;7.770;2022-09-19T14:40:28;11.50;99.90
30764;DHT22;17497;51.476;7.770;2022-09-19T14:43:04;11.60;99.90
30764;DHT22;17497;51.476;7.770;2022-09-19T14:48:32;11.60;99.90
30764;DHT22;17497;51.476;7.770;2022-09-19T14:53:38;11.60;99.90
30764;DHT22;17497;51.476;7.770;2022-09-19T14:56:12;11.70;99.90
30764;DHT22;17497;51.476;7.770;2022-09-19T14:58:49;11.70;99.90
30764;DHT22;17497;51.476;7.770;2022-09-19T15:01:25;11.70;99.90
30764;DHT22;17497;51.476;7.770;2022-09-19T15:06:35;11.50;99.90
30764;DHT22;17497;51.476;7.770;2022-09-19T15:09:03;11.50;99.90
30764;DHT22;17497;51.476;7.770;2022-09-19T15:11:30;11.50;99.90
30764;DHT22;17497;51.476;7.770;2022-09-19T15:13:57;11.60;99.90
30764;DHT22;17497;51.476;7.770;2022-09-19T15:16:26;11.60;99.90
30764;DHT22;17497;51.476;7.770;2022-09-19T15:18:57;11.60;99.90
30764;DHT22;17497;51.476;7.770;2022-09-19T15:21:27;11.60;99.90
30764;DHT22;17497;51.476;7.770;2022-09-19T15:23:57;11.60;99.90
30764;DHT22;17497;51.476;7.770;2022-09-19T15:26:28;11.60;99.90
30764;DHT22;17497;51.476;7.770;2022-09-19T15:29:00;11.60;99.90
30764;DHT22;17497;51.476;7.770;2022-09-19T15:31:29;11.50;99.90
30764;DHT22;17497;51.476;7.770;2022-09-19T15:34:12;11.50;99.90
30764;DHT22;17497;51.476;7.770;2022-09-19T15:36:43;11.60;99.90
30764;DHT22;17497;51.476;7.770;2022-09-19T15:39:12;11.50;99.90
30764;DHT22;17497;51.476;7.770;2022-09-19T15:41:40;11.60;99.90
30764;DHT22;17497;51.476;7.770;2022-09-19T15:44:24;11.50;99.90
30764;DHT22;17497;51.476;7.770;2022-09-19T15:47:03;11.50;99.90
30764;DHT22;17497;51.476;7.770;2022-09-19T15:49:37;11.50;99.90
30764;DHT22;17497;51.476;7.770;2022-09-19T15:54:51;11.40;99.90
30764;DHT22;17497;51.476;7.770;2022-09-19T16:02:31;11.10;99.90
30764;DHT22;17497;51.476;7.770;2022-09-19T16:05:17;11.00;99.90
30764;DHT22;17497;51.476;7.770;2022-09-19T16:07:56;11.00;99.90
30764;DHT22;17497;51.476;7.770;2022-09-19T16:10:44;11.00;99.90
30764;DHT22;17497;51.476;7.770;2022-09-19T16:16:03;11.00;99.90
30764;DHT22;17497;51.476;7.770;2022-09-19T16:18:47;10.90;99.90
30764;DHT22;17497;51.476;7.770;2022-09-19T16:21:19;10.90;99.90
30764;DHT22;17497;51.476;7.770;2022-09-19T16:23:50;10.90;99.90
30764;DHT22;17497;51.476;7.770;2022-09-19T16:26:19;11.00;99.90
30764;DHT22;17497;51.476;7.770;2022-09-19T16:28:50;11.20;99.90
30764;DHT22;17497;51.476;7.770;2022-09-19T16:31:25;11.40;99.90
30764;DHT22;17497;51.476;7.770;2022-09-19T16:36:51;11.40;99.90
30764;DHT22;17497;51.476;7.770;2022-09-19T16:39:22;11.30;99.90
30764;DHT22;17497;51.476;7.770;2022-09-19T16:47:48;11.30;99.90
30764;DHT22;17497;51.476;7.770;2022-09-19T16:50:20;11.30;99.90
30764;DHT22;17497;51.476;7.770;2022-09-19T16:52:50;11.20;99.90
30764;DHT22;17497;51.476;7.770;2022-09-19T16:55:48;11.10;99.90
30764;DHT22;17497;51.476;7.770;2022-09-19T16:58:19;11.00;99.90
30764;DHT22;17497;51.476;7.770;2022-09-19T17:00:48;11.00;99.90
30764;DHT22;17497;51.476;7.770;2022-09-19T17:03:15;10.90;99.90
30764;DHT22;17497;51.476;7.770;2022-09-19T17:05:45;10.90;99.90
30764;DHT22;17497;51.476;7.770;2022-09-19T17:08:13;10.90;99.90
30764;DHT22;17497;51.476;7.770;2022-09-19T17:10:40;10.90;99.90
30764;DHT22;17497;51.476;7.770;2022-09-19T17:13:11;10.90;99.90
30764;DHT22;17497;51.476;7.770;2022-09-19T17:15:46;10.90;99.90
30764;DHT22;17497;51.476;7.770;2022-09-19T17:18:16;11.00;99.90
30764;DHT22;17497;51.476;7.770;2022-09-19T17:20:43;10.90;99.90
30764;DHT22;17497;51.476;7.770;2022-09-19T17:23:13;11.00;99.90
30764;DHT22;17497;51.476;7.770;2022-09-19T17:25:49;11.00;99.90
30764;DHT22;17497;51.476;7.770;2022-09-19T17:28:25;11.00;99.90
30764;DHT22;17497;51.476;7.770;2022-09-19T17:30:54;11.00;99.90
30764;DHT22;17497;51.476;7.770;2022-09-19T17:33:23;11.00;99.90
30764;DHT22;17497;51.476;7.770;2022-09-19T17:35:51;11.00;99.90
30764;DHT22;17497;51.476;7.770;2022-09-19T17:38:18;11.00;99.90
30764;DHT22;17497;51.476;7.770;2022-09-19T17:40:46;11.00;99.90
30764;DHT22;17497;51.476;7.770;2022-09-19T17:43:16;11.00;99.90
30764;DHT22;17497;51.476;7.770;2022-09-19T17:45:44;11.00;99.90
30764;DHT22;17497;51.476;7.770;2022-09-19T17:48:14;11.00;99.90
30764;DHT22;17497;51.476;7.770;2022-09-19T17:50:41;11.00;99.90
30764;DHT22;17497;51.476;7.770;2022-09-19T17:53:08;11.10;99.90
30764;DHT22;17497;51.476;7.770;2022-09-19T17:55:36;11.10;99.90
30764;DHT22;17497;51.476;7.770;2022-09-19T17:58:04;11.10;99.90
30764;DHT22;17497;51.476;7.770;2022-09-19T18:00:32;11.10;99.90
30764;DHT22;17497;51.476;7.770;2022-09-19T18:02:59;11.10;99.90
30764;DHT22;17497;51.476;7.770;2022-09-19T18:05:57;11.10;99.90
30764;DHT22;17497;51.476;7.770;2022-09-19T18:08:25;11.00;99.90
30764;DHT22;17497;51.476;7.770;2022-09-19T18:10:59;11.10;99.90
30764;DHT22;17497;51.476;7.770;2022-09-19T18:13:27;11.10;99.90
30764;DHT22;17497;51.476;7.770;2022-09-19T18:15:56;11.00;99.90
30764;DHT22;17497;51.476;7.770;2022-09-19T18:18:23;11.00;99.90
30764;DHT22;17497;51.476;7.770;2022-09-19T18:20:53;11.00;99.90
30764;DHT22;17497;51.476;7.770;2022-09-19T18:23:23;10.90;99.90
30764;DHT22;17497;51.476;7.770;2022-09-19T18:25:55;10.90;99.90
30764;DHT22;17497;51.476;7.770;2022-09-19T18:28:25;10.80;99.90
30764;DHT22;17497;51.476;7.770;2022-09-19T18:30:53;10.80;99.90
30764;DHT22;17497;51.476;7.770;2022-09-19T18:33:21;10.80;99.90
30764;DHT22;17497;51.476;7.770;2022-09-19T18:35:49;10.70;99.90
30764;DHT22;17497;51.476;7.770;2022-09-19T18:38:16;10.70;99.90
30764;DHT22;17497;51.476;7.770;2022-09-19T18:40:44;10.60;99.90
30764;DHT22;17497;51.476;7.770;2022-09-19T18:43:11;10.60;99.90
30764;DHT22;17497;51.476;7.770;2022-09-19T18:45:38;10.50;99.90
30764;DHT22;17497;51.476;7.770;2022-09-19T18:48:05;10.50;99.90
30764;DHT22;17497;51.476;7.770;2022-09-19T18:50:32;10.50;99.90
30764;DHT22;17497;51.476;7.770;2022-09-19T18:53:00;10.50;99.90
30764;DHT22;17497;51.476;7.770;2022-09-19T18:55:26;10.50;99.90
30764;DHT22;17497;51.476;7.770;2022-09-19T18:57:53;10.40;99.90
30764;DHT22;17497;51.476;7.770;2022-09-19T19:00:20;10.50;99.90
30764;DHT22;17497;51.476;7.770;2022-09-19T19:02:46;10.50;99.90
30764;DHT22;17497;51.476;7.770;2022-09-19T19:05:14;10.40;99.90
30764;DHT22;17497;51.476;7.770;2022-09-19T19:07:41;10.40;99.90
30764;DHT22;17497;51.476;7.770;2022-09-19T19:10:08;10.40;99.90
30764;DHT22;17497;51.476;7.770;2022-09-19T19:12:35;10.40;99.90
30764;DHT22;17497;51.476;7.770;2022-09-19T19:15:10;10.40;99.90
30764;DHT22;17497;51.476;7.770;2022-09-19T19:17:43;10.40;99.90
30764;DHT22;17497;51.476;7.770;2022-09-19T19:20:13;10.30;99.90
30764;DHT22;17497;51.476;7.770;2022-09-19T19:22:39;10.40;99.90
30764;DHT22;17497;51.476;7.770;2022-09-19T19:25:06;10.40;99.90
30764;DHT22;17497;51.476;7.770;2022-09-19T19:27:33;10.30;99.90
30764;DHT22;17497;51.476;7.770;2022-09-19T19:30:00;10.30;99.90
30764;DHT22;17497;51.476;7.770;2022-09-19T19:32:28;10.30;99.90